Flight Track Log - Related Links

Times and Time Zones

All times are in EDT time to prevent confusion due to time zone crossing. See the SWA738 flight status page for this flight to view local times or setup timezone preferences in your user account.

Time Position Orientation Groundspeed Altitude Reporting Facility
EDT Latitude Longitude Course Direction KTS MPH feet Rate Location/Type
Wed 07:30:19 PM 39.1833 -76.7000 218° Southwest 158 182 1,600  Level Potomac TRACON
Wed 07:31:13 PM 39.1500 -76.7333 218° Southwest 208 239 3,300 2,294 Climbing Potomac TRACON
Wed 07:33:43 PM 39.1411 -76.5256 93° East 241 277 9,400 2,510 Climbing Washington Center
Wed 07:34:41 PM 39.1439 -76.4133 88° East 271 312 12,000 2,746 Climbing Washington Center
Wed 07:35:41 PM 39.1447 -76.2900 89° East 314 361 14,800 2,628 Climbing Washington Center
Wed 07:36:42 PM 39.1600 -76.1564 82° East 351 404 17,300 2,281 Climbing Washington Center
Wed 07:37:42 PM 39.1753 -76.0172 82° East 376 433 19,400 2,033 Climbing Washington Center
Wed 07:38:43 PM 39.2153 -75.8861 68° East 383 441 21,400 2,132 Climbing Washington Center
Wed 07:39:43 PM 39.2967 -75.7739 47° Northeast 391 450 23,700 1,815 Climbing Washington Center
Wed 07:40:42 PM 39.3803 -75.6586 47° Northeast 415 478 25,000 650 Climbing Washington Center
Wed 07:41:43 PM 39.4656 -75.5431 46° Northeast 430 495 25,000 49 Level Washington Center
Wed 07:42:44 PM 39.5489 -75.4275 47° Northeast 436 502 25,100 1,017 Climbing Washington Center
Wed 07:43:41 PM 39.6342 -75.3086 47° Northeast 441 507 27,000 1,875 Climbing Washington Center
Wed 07:44:52 PM 39.7425 -75.1525 48° Northeast 474 545 29,100 1,478 Climbing New York Center
Wed 07:45:55 PM 39.8150 -75.0492 48° Northeast 469 540 30,300 1,636 Climbing New York Center
Wed 07:46:53 PM 39.9203 -74.9011 47° Northeast 469 540 32,400 1,881 Climbing New York Center
Wed 07:47:53 PM 40.0036 -74.7869 46° Northeast 469 540 34,000 1,736 Climbing New York Center
Wed 07:48:54 PM 40.0911 -74.6617 48° Northeast 474 545 35,900 1,450 Climbing New York Center
Wed 07:49:53 PM 40.1742 -74.5386 49° Northeast 464 534 36,900 555 Climbing New York Center
Wed 07:50:53 PM 40.3036 -74.4669 23° Northeast 439 505 37,000 28 Climbing New York Center
Wed 07:53:27 PM 40.6017 -74.3889 11° North 460 529 37,000  Level Boston Center
Wed 07:54:27 PM 40.7439 -74.3578 North 460 529 37,000  Level Boston Center
Wed 07:55:27 PM 40.8822 -74.3206 11° North 460 529 37,000  Level Boston Center
Wed 07:56:27 PM 41.0119 -74.2858 11° North 465 535 37,000  Level Boston Center
Wed 07:57:27 PM 41.1375 -74.2508 12° North 465 535 37,000  Level Boston Center
Wed 07:58:27 PM 41.2569 -74.2128 13° North 471 542 37,000  Level Boston Center
Wed 07:59:27 PM 41.3844 -74.1803 11° North 471 542 37,000  Level Boston Center
Wed 08:00:27 PM 41.5142 -74.1450 12° North 471 542 37,000 -500 Level Boston Center
Wed 08:01:27 PM 41.6567 -74.1072 11° North 471 542 36,000 -950 Descending Boston Center
Wed 08:02:27 PM 41.7864 -74.0717 12° North 471 542 35,100 -950 Descending Boston Center
Wed 08:03:27 PM 41.9161 -74.0386 11° North 471 542 34,100 -1,000 Descending Boston Center
Wed 08:04:27 PM 42.0294 -73.9717 24° Northeast 453 521 33,100 -1,050 Descending Boston Center
Wed 08:05:27 PM 42.0894 -73.8417 58° Northeast 403 464 32,000 -1,050 Descending Boston Center
Wed 08:06:27 PM 42.1514 -73.7142 57° Northeast 398 458 31,000 -1,000 Descending Boston Center
Wed 08:07:27 PM 42.2133 -73.5781 58° Northeast 410 472 30,000 -1,000 Descending Boston Center
Wed 08:08:27 PM 42.2731 -73.4503 58° Northeast 405 466 29,000 -1,000 Descending Boston Center
Wed 08:09:27 PM 42.3303 -73.3303 57° Northeast 398 458 28,000 -1,000 Descending Boston Center
Wed 08:10:27 PM 42.3875 -73.1961 60° Northeast 398 458 27,000 -1,000 Descending Boston Center
Wed 08:11:27 PM 42.4425 -73.0703 59° Northeast 398 458 26,000 -1,450 Descending Boston Center
Wed 08:12:27 PM 42.5014 -72.9525 56° Northeast 392 451 24,100 -1,850 Descending Boston Center
Wed 08:13:27 PM 42.5519 -72.8347 60° Northeast 375 432 22,300 -2,200 Descending Boston Center
Wed 08:14:27 PM 42.5919 -72.7022 68° East 370 426 19,700 -2,050 Descending Boston Center
Wed 08:15:27 PM 42.6086 -72.5925 78° East 345 397 18,200 -1,600 Descending Boston Center
Wed 08:16:27 PM 42.6275 -72.4656 79° East 340 391 16,500 -1,650 Descending Boston Center
Wed 08:17:27 PM 42.6339 -72.3414 86° East 329 379 14,900 -1,650 Descending Boston Center
Wed 08:18:27 PM 42.6397 -72.2031 87° East 329 379 13,200 -1,450 Descending Boston Center
Wed 08:19:27 PM 42.6458 -72.1211 84° East 324 373 12,000 -1,500 Descending Boston Center
Wed 08:20:27 PM 42.6558 -71.9686 85° East 318 366 10,200 -1,300 Descending Boston Center
Wed 08:21:27 PM 42.6636 -71.8725 84° East 298 343 9,400 -700 Descending Boston Center
Wed 08:22:27 PM 42.7006 -71.7789 62° Northeast 251 289 8,800 -750 Descending Boston Center
Wed 08:23:27 PM 42.7633 -71.7811 359° North 230 265 7,900 -1,150 Descending Boston Center
Wed 08:24:27 PM 42.8631 -71.7489 13° North 273 314 6,500 -1,300 Descending Boston Center
Wed 08:25:27 PM 42.9294 -71.7142 21° North 282 325 5,300 -1,200 Descending Boston Center
Wed 08:26:27 PM 43.0106 -71.6736 20° North 282 325 4,100 -600 Descending Boston Center
Wed 08:27:27 PM 43.0750 -71.6442 18° North 282 325 4,100 -682 Level Boston Center
Wed 08:28:39 PM 43.1139 -71.5583 58° Northeast 244 281 2,600 -682 Descending Boston Center
Wed 08:29:39 PM 43.0636 -71.5136 147° Southeast 132 152 2,600 -250 Level Boston Center
Wed 08:30:39 PM 43.0281 -71.4914 155° Southeast 138 159 2,100 -545 Descending Boston Center
Wed 08:31:51 PM 42.9903 -71.4694 157° South 140 161 1,400 -727 Descending Boston Center
Wed 08:32:51 PM 42.9506 -71.4472 158° South 129 148 500 -900 Descending Boston Center
Wed 08:34:00 PM 42.9328 -71.4358 316° Northwest  Level Estimated
Wed 08:41:00 PM 42.9328 -71.4358 316° Northwest  Level Estimated

Login

Don't have an account? Register now (free) for customized features, flight alerts, and more!